Roosevelt, Arizona
Current Conditions -  °F | °C
As of 6:47 PM on Sunday 21 Dec 2014 (Local Time) from KIWA Reporting Station
Scattered Clouds Scattered Clouds  
Wind Chill: 54°   Ceiling: Unl
Heat Index: 54°   Visibility: 20mi
Dew Point: 43°   Wind: 0mph
Humidity: 67%   Direction: NA
Pressure: 30.06"   Gusts: NA
Location:  33.67°N, 111.14°W
Report Text: KIWA 220147Z 00000KT 20SM SCT200 12/06 A3006
Loading
Personal Weather Stations






























Interactive Weather Map New forecast layout! Learn more

10-Day Weather Forecast

Advertisements
Track Severe Weather on mobile